Time;durP1;ratioP1;P1;durP2;ratioP2;P2;SDS_P1;SDS_P2;PMS_P1;PMS_P2;Temp;Humidity;BMP_temperature;BMP_pressure;BME280_temperature;BME280_humidity;BME280_pressure;Samples;Min_cycle;Max_cycle;Signal;HPM_P1;HPM_P2
2022/05/31 00:01:39;;;;;;;;;;;;;;;24.01;26.86;100475.88;5098480;28;19920;-71
2022/05/31 00:04:05;;;;;;;;;;;;;;;24.02;26.87;100473.97;5080368;28;20286;-71
2022/05/31 00:06:30;;;;;;;;;;;;;;;24.01;27.02;100478.63;5098119;28;19924;-71
2022/05/31 00:08:55;;;;;;;;;;;;;;;24.02;26.92;100487.63;5097913;28;19961;-71
2022/05/31 00:11:21;;;;;;;;;;;;;;;24.00;26.86;100476.97;5097916;28;19916;-71
2022/05/31 00:13:46;;;;;;;;;;;;;;;23.99;26.68;100465.25;5097585;28;19955;-71
2022/05/31 00:16:11;;;;;;;;;;;;;;;24.00;26.66;100463.31;5097906;28;20303;-71
2022/05/31 00:18:37;;;;;;;;;;;;;;;23.98;26.46;100458.13;5097154;28;19999;-71
2022/05/31 00:21:02;;;;;;;;;;;;;;;23.98;26.27;100446.41;5097531;28;19916;-75
2022/05/31 00:23:27;;;;;;;;;;;;;;;23.99;26.12;100457.06;5095895;28;19916;-76
2022/05/31 00:25:53;;;;;;;;;;;;;;;23.98;26.12;100449.13;5077658;28;19920;-75
2022/05/31 00:28:18;;;;;;;;;;;;;;;23.97;25.94;100445.59;5095979;28;19922;-76
2022/05/31 00:30:43;;;;;;;;;;;;;;;23.96;25.77;100438.50;5096115;28;19924;-76
2022/05/31 00:33:10;;;;;;;;;;;;;;;23.96;25.54;100434.97;5095448;28;19963;-76
2022/05/31 00:35:38;;;;;;;;;;;;;;;23.95;25.64;100431.38;5095540;28;19916;-76
2022/05/31 00:38:03;;;;;;;;;;;;;;;23.95;25.42;100436.03;5078071;28;20006;-75
2022/05/31 00:40:29;;;;;;;;;;;;;;;23.96;25.49;100433.03;5095630;28;19970;-75
2022/05/31 00:42:55;;;;;;;;;;;;;;;23.96;25.16;100433.03;5095587;28;19952;-75
2022/05/31 00:45:25;;;;;;;;;;;;;;;23.96;25.28;100433.03;5095851;28;19924;-75
2022/05/31 00:47:50;;;;;;;;;;;;;;;23.94;25.17;100428.94;5095918;28;19920;-76
2022/05/31 00:50:21;;;;;;;;;;;;;;;23.94;25.15;100428.94;5077642;28;20378;-76
2022/05/31 00:52:48;;;;;;;;;;;;;;;23.93;25.14;100428.13;5095420;28;19923;-76
2022/05/31 00:55:15;;;;;;;;;;;;;;;23.95;25.26;100436.03;5076795;28;19923;-77
2022/05/31 00:57:41;;;;;;;;;;;;;;;23.94;25.22;100424.31;5095132;28;19920;-77
2022/05/31 01:00:10;;;;;;;;;;;;;;;23.93;25.27;100428.13;5095507;28;19916;-77
2022/05/31 01:02:36;;;;;;;;;;;;;;;23.94;25.15;100418.00;5094956;28;19916;-77
2022/05/31 01:05:01;;;;;;;;;;;;;;;23.94;25.38;100421.59;5077408;28;19922;-77
2022/05/31 01:07:26;;;;;;;;;;;;;;;23.93;25.18;100422.66;5094633;28;19927;-77
2022/05/31 01:09:52;;;;;;;;;;;;;;;23.92;25.29;100418.31;5094787;28;19923;-77
2022/05/31 01:12:17;;;;;;;;;;;;;;;23.93;25.28;100416.41;5078585;28;19978;-73
2022/05/31 01:14:42;;;;;;;;;;;;;;;23.93;25.57;100410.94;5098117;28;19959;-73
2022/05/31 01:17:09;;;;;;;;;;;;;;;23.92;25.41;100406.56;5098382;28;19916;-73
2022/05/31 01:22:18;;;;;;;;;;;;;;;23.91;25.55;100394.03;5097966;28;20290;-73
2022/05/31 01:24:53;;;;;;;;;;;;;;;23.90;25.74;100395.91;5079278;28;19928;-73
2022/05/31 01:27:42;;;;;;;;;;;;;;;23.91;25.72;100396.75;5079430;28;19916;-73
2022/05/31 01:30:07;;;;;;;;;;;;;;;23.90;25.56;100387.72;5015019;28;20059;-73
2022/05/31 01:32:34;;;;;;;;;;;;;;;23.91;25.91;100380.38;5015633;28;19964;-73
2022/05/31 01:35:01;;;;;;;;;;;;;;;23.91;25.94;100385.84;4998924;28;20008;-73
2022/05/31 01:37:45;;;;;;;;;;;;;;;23.91;26.05;100385.84;4998449;28;19923;-73
2022/05/31 01:40:12;;;;;;;;;;;;;;;23.89;25.97;100388.84;5015101;28;20063;-73
2022/05/31 01:42:41;;;;;;;;;;;;;;;23.89;25.86;100383.38;4999336;28;19918;-73
2022/05/31 01:45:06;;;;;;;;;;;;;;;23.89;26.29;100385.31;5015645;28;19956;-73
2022/05/31 01:47:32;;;;;;;;;;;;;;;23.88;26.37;100381.72;5015571;28;19918;-73
2022/05/31 01:49:57;;;;;;;;;;;;;;;23.89;26.17;100382.56;4999450;28;19953;-73
2022/05/31 01:52:22;;;;;;;;;;;;;;;23.89;26.19;100379.84;5015865;28;19925;-73
2022/05/31 01:54:47;;;;;;;;;;;;;;;23.90;26.38;100374.09;5014732;28;19917;-71
2022/05/31 01:57:13;;;;;;;;;;;;;;;23.89;26.42;100371.66;5014421;28;19971;-71
2022/05/31 01:59:40;;;;;;;;;;;;;;;23.89;26.53;100380.66;4997843;28;20435;-71
2022/05/31 02:02:06;;;;;;;;;;;;;;;23.89;26.66;100371.66;5013889;28;19975;-71
2022/05/31 02:04:31;;;;;;;;;;;;;;;23.88;26.66;100376.28;5014042;28;19925;-71
2022/05/31 02:07:12;;;;;;;;;;;;;;;23.88;26.61;100367.28;5060693;28;19916;-71
2022/05/31 02:09:38;;;;;;;;;;;;;;;23.89;26.66;100371.66;5116542;28;19916;-71
2022/05/31 02:12:04;;;;;;;;;;;;;;;23.88;26.81;100361.81;5116325;28;19915;-71
2022/05/31 02:14:29;;;;;;;;;;;;;;;23.87;26.66;100357.44;5117290;28;20025;-71
2022/05/31 02:16:55;;;;;;;;;;;;;;;23.88;26.87;100359.09;5120132;28;19967;-71
2022/05/31 02:19:25;;;;;;;;;;;;;;;23.88;26.80;100357.19;5120418;28;19973;-71
2022/05/31 02:21:53;;;;;;;;;;;;;;;23.87;26.95;100360.19;5120353;28;19980;-71
2022/05/31 02:24:22;;;;;;;;;;;;;;;23.85;27.09;100354.19;5140052;27;19919;-71
2022/05/31 02:26:47;;;;;;;;;;;;;;;23.86;27.22;100350.38;5140601;27;19955;-70
2022/05/31 02:29:14;;;;;;;;;;;;;;;23.86;27.07;100350.38;5140231;27;20289;-70
2022/05/31 02:31:39;;;;;;;;;;;;;;;23.85;27.22;100343.28;5140772;27;19915;-70
2022/05/31 02:34:04;;;;;;;;;;;;;;;23.86;26.99;100345.72;5140669;27;19922;-70
2022/05/31 02:36:30;;;;;;;;;;;;;;;23.86;27.13;100337.53;5140760;27;19919;-70
2022/05/31 02:38:55;;;;;;;;;;;;;;;23.87;27.17;100338.34;5140337;27;20377;-70
2022/05/31 02:41:20;;;;;;;;;;;;;;;23.86;27.26;100328.53;5139865;27;20014;-70
2022/05/31 02:43:46;;;;;;;;;;;;;;;23.85;27.13;100326.91;5140535;27;19926;-70
2022/05/31 02:46:11;;;;;;;;;;;;;;;23.86;27.31;100328.53;5140315;27;19922;-70
2022/05/31 02:48:36;;;;;;;;;;;;;;;23.86;27.46;100334.00;5140595;27;19915;-71
2022/05/31 02:51:02;;;;;;;;;;;;;;;23.84;27.48;100317.91;5139722;27;19922;-70
2022/05/31 02:53:29;;;;;;;;;;;;;;;23.84;27.39;100320.63;5140184;27;19915;-70
2022/05/31 02:55:54;;;;;;;;;;;;;;;23.83;27.42;100318.19;5140141;27;19915;-70
2022/05/31 02:58:20;;;;;;;;;;;;;;;23.84;27.40;100315.16;5140284;27;20346;-71
2022/05/31 03:00:45;;;;;;;;;;;;;;;23.83;27.42;100313.53;5140421;27;19916;-71
2022/05/31 03:03:10;;;;;;;;;;;;;;;23.83;27.69;100308.06;5139414;27;19925;-71
2022/05/31 03:05:35;;;;;;;;;;;;;;;23.85;27.49;100313.25;5139085;27;19916;-71
2022/05/31 03:08:02;;;;;;;;;;;;;;;23.87;27.59;100313.78;5119180;27;20365;-71
2022/05/31 03:10:28;;;;;;;;;;;;;;;23.87;27.41;100308.31;5117045;28;19922;-70
2022/05/31 03:12:55;;;;;;;;;;;;;;;23.91;27.44;100303.97;5098388;28;19926;-70
2022/05/31 03:15:20;;;;;;;;;;;;;;;23.92;27.59;100300.97;5116537;28;20386;-71
2022/05/31 03:17:52;;;;;;;;;;;;;;;23.95;27.55;100299.56;5116579;28;19916;-71
2022/05/31 03:20:22;;;;;;;;;;;;;;;23.98;27.31;100293.56;5116463;28;19916;-71
2022/05/31 03:22:48;;;;;;;;;;;;;;;24.02;27.42;100293.81;5116861;28;20015;-71
2022/05/31 03:25:15;;;;;;;;;;;;;;;24.06;27.59;100284.78;5116388;28;19927;-71
2022/05/31 03:27:40;;;;;;;;;;;;;;;24.10;27.42;100291.31;5117432;28;19980;-71
2022/05/31 03:30:06;;;;;;;;;;;;;;;24.14;27.37;100292.38;5117014;28;19924;-71
2022/05/31 03:32:31;;;;;;;;;;;;;;;24.17;27.27;100282.81;5099203;28;19927;-71
2022/05/31 03:34:56;;;;;;;;;;;;;;;24.21;27.03;100288.53;5099553;28;19920;-71
2022/05/31 03:37:22;;;;;;;;;;;;;;;24.22;27.22;100284.72;5117036;28;20018;-71
2022/05/31 03:39:47;;;;;;;;;;;;;;;24.24;27.29;100283.31;5116573;28;19923;-71
2022/05/31 03:42:12;;;;;;;;;;;;;;;24.26;27.24;100281.13;5116843;28;19999;-71
2022/05/31 03:44:37;;;;;;;;;;;;;;;24.27;26.92;100273.78;5117372;28;19916;-71
2022/05/31 03:47:03;;;;;;;;;;;;;;;24.33;27.04;100278.09;5116897;28;19916;-71
2022/05/31 03:49:29;;;;;;;;;;;;;;;24.32;27.02;100266.34;5116327;28;19931;-71
2022/05/31 03:51:54;;;;;;;;;;;;;;;24.36;27.07;100269.34;5116971;28;19922;-71
2022/05/31 03:54:19;;;;;;;;;;;;;;;24.35;26.84;100265.78;5116886;28;19928;-71
2022/05/31 03:56:44;;;;;;;;;;;;;;;24.38;27.10;100257.00;5116535;28;20234;-72
2022/05/31 03:59:10;;;;;;;;;;;;;;;24.39;27.03;100244.19;5116171;28;19964;-72
2022/05/31 04:01:35;;;;;;;;;;;;;;;24.42;26.95;100254.53;5115997;28;19923;-71
2022/05/31 04:04:03;;;;;;;;;;;;;;;24.42;26.73;100249.06;5116907;28;19920;-71
2022/05/31 04:06:28;;;;;;;;;;;;;;;24.43;26.85;100250.72;5121034;27;19920;-71
2022/05/31 04:08:53;;;;;;;;;;;;;;;24.47;26.66;100235.38;5137581;27;19923;-72
2022/05/31 04:11:18;;;;;;;;;;;;;;;24.50;26.85;100239.47;5136971;27;19938;-71
2022/05/31 04:13:44;;;;;;;;;;;;;;;24.51;26.89;100235.66;5137932;27;19972;-71
2022/05/31 04:16:13;;;;;;;;;;;;;;;24.51;26.91;100236.44;5137219;27;20362;-72
2022/05/31 04:18:38;;;;;;;;;;;;;;;24.52;26.96;100229.88;5137028;27;19915;-72
2022/05/31 04:21:05;;;;;;;;;;;;;;;24.54;26.57;100230.47;5137279;27;20445;-72
2022/05/31 04:26:14;;;;;;;;;;;;;;;24.60;26.58;100222.22;5136909;27;19938;-72
2022/05/31 04:28:39;;;;;;;;;;;;;;;24.62;26.51;100220.00;5136163;27;20311;-72
2022/05/31 04:31:04;;;;;;;;;;;;;;;24.66;26.67;100215.59;5136748;27;19945;-71
2022/05/31 04:33:31;;;;;;;;;;;;;;;24.65;26.45;100225.72;5135765;27;20714;-72
2022/05/31 04:36:00;;;;;;;;;;;;;;;24.66;26.68;100221.06;5136418;27;19922;-72
2022/05/31 04:38:25;;;;;;;;;;;;;;;24.65;26.80;100214.00;5135690;27;19916;-72
2022/05/31 04:40:50;;;;;;;;;;;;;;;24.65;26.55;100206.59;5117954;27;19919;-72
2022/05/31 04:43:16;;;;;;;;;;;;;;;24.69;26.70;100218.56;5118063;27;19920;-72
2022/05/31 04:45:41;;;;;;;;;;;;;;;24.69;26.79;100212.31;5136673;27;19919;-72
2022/05/31 04:48:07;;;;;;;;;;;;;;;24.69;26.62;100217.78;5136611;27;20346;-72
2022/05/31 04:50:32;;;;;;;;;;;;;;;24.72;26.75;100212.53;5136386;27;19968;-72
2022/05/31 04:52:57;;;;;;;;;;;;;;;24.74;26.62;100191.19;5136487;27;19973;-72
2022/05/31 04:55:23;;;;;;;;;;;;;;;24.76;26.62;100188.19;5135400;27;19916;-71
2022/05/31 04:57:48;;;;;;;;;;;;;;;24.76;26.64;100193.66;5135857;27;19937;-72
2022/05/31 05:00:14;;;;;;;;;;;;;;;24.77;26.55;100181.63;5136066;27;19919;-72
2022/05/31 05:02:40;;;;;;;;;;;;;;;24.78;26.56;100169.56;5135701;27;19970;-71
2022/05/31 05:05:05;;;;;;;;;;;;;;;24.81;26.55;100179.94;5135654;27;20362;-72
2022/05/31 05:07:30;;;;;;;;;;;;;;;24.83;26.92;100161.34;5123880;27;19999;-71
2022/05/31 05:09:56;;;;;;;;;;;;;;;24.85;27.07;100163.78;5114810;28;19922;-71
2022/05/31 05:12:21;;;;;;;;;;;;;;;24.87;26.71;100165.13;5114387;28;20044;-71
2022/05/31 05:14:47;;;;;;;;;;;;;;;24.90;26.76;100164.53;5114673;28;20438;-71
2022/05/31 05:17:13;;;;;;;;;;;;;;;24.92;26.91;100170.56;5114651;28;19968;-73
2022/05/31 05:19:38;;;;;;;;;;;;;;;24.91;26.65;100163.44;5114788;28;19919;-72
2022/05/31 05:22:03;;;;;;;;;;;;;;;24.97;26.77;100166.13;5114601;28;20018;-72
2022/05/31 05:24:31;;;;;;;;;;;;;;;25.00;26.96;100174.56;5113849;28;19934;-71
2022/05/31 05:27:01;;;;;;;;;;;;;;;24.97;26.99;100166.94;5114630;28;19927;-71
2022/05/31 05:32:10;;;;;;;;;;;;;;;24.96;26.87;100153.56;5115479;28;20396;-72
2022/05/31 05:34:36;;;;;;;;;;;;;;;24.98;26.75;100152.16;5114905;28;19999;-71
2022/05/31 05:37:01;;;;;;;;;;;;;;;25.03;26.74;100143.13;5115382;28;19916;-71
2022/05/31 05:39:26;;;;;;;;;;;;;;;24.99;26.83;100147.50;5096711;28;19916;-71
2022/05/31 05:41:51;;;;;;;;;;;;;;;25.03;26.91;100135.72;5095845;28;19950;-72
2022/05/31 05:44:17;;;;;;;;;;;;;;;25.05;27.13;100130.75;5113888;28;19916;-71
2022/05/31 05:46:43;;;;;;;;;;;;;;;25.09;26.98;100126.38;5113878;28;20323;-73
2022/05/31 05:49:08;;;;;;;;;;;;;;;25.15;27.02;100116.16;5116527;28;19923;-71
2022/05/31 05:51:33;;;;;;;;;;;;;;;25.19;26.80;100119.94;5117629;28;20358;-71
2022/05/31 05:54:01;;;;;;;;;;;;;;;25.19;26.81;100133.63;5100476;28;19916;-71
2022/05/31 05:56:26;;;;;;;;;;;;;;;25.15;26.85;100123.53;5118157;28;20027;-70
2022/05/31 05:58:51;;;;;;;;;;;;;;;25.21;26.81;100122.38;5118975;28;19977;-71
2022/05/31 06:01:29;;;;;;;;;;;;;;;25.21;26.48;100123.19;5118850;28;20298;-71
2022/05/31 06:03:56;;;;;;;;;;;;;;;25.23;26.59;100115.53;5119344;28;19916;-70
2022/05/31 06:06:21;;;;;;;;;;;;;;;25.22;26.52;100108.44;5119207;27;19927;-70
2022/05/31 06:08:49;;;;;;;;;;;;;;;25.29;26.57;100113.56;5138981;27;19915;-70
2022/05/31 06:11:19;;;;;;;;;;;;;;;25.25;26.53;100107.88;5138715;27;20373;-72
2022/05/31 06:13:48;;;;;;;;;;;;;;;25.30;26.66;100105.06;5138415;27;19941;-73
2022/05/31 06:16:14;;;;;;;;;;;;;;;25.34;26.61;100099.84;5138742;27;19915;-72
2022/05/31 06:18:50;;;;;;;;;;;;;;;25.37;26.55;100101.16;5139184;27;20083;-71
2022/05/31 06:21:15;;;;;;;;;;;;;;;25.39;26.39;100104.41;5138745;27;20010;-72
2022/05/31 06:23:42;;;;;;;;;;;;;;;25.43;26.44;100100.00;5138022;27;20362;-71
2022/05/31 06:26:07;;;;;;;;;;;;;;;25.42;26.32;100110.13;5138402;27;19920;-71
2022/05/31 06:28:32;;;;;;;;;;;;;;;25.40;26.47;100114.25;5138259;27;19941;-71
2022/05/31 06:30:57;;;;;;;;;;;;;;;25.44;26.38;100110.63;5138814;27;20350;-70
2022/05/31 06:33:23;;;;;;;;;;;;;;;25.47;26.23;100120.16;5139201;27;20254;-71
2022/05/31 06:35:48;;;;;;;;;;;;;;;25.46;26.18;100113.09;5138696;27;19969;-70
2022/05/31 06:38:16;;;;;;;;;;;;;;;25.42;26.34;100117.50;5138445;27;19923;-70
2022/05/31 06:40:41;;;;;;;;;;;;;;;25.43;26.19;100124.59;5138748;27;19931;-70
2022/05/31 06:43:06;;;;;;;;;;;;;;;25.42;26.34;100128.44;5138238;27;19940;-71
2022/05/31 06:45:32;;;;;;;;;;;;;;;25.42;26.20;100132.00;5138034;27;20303;-71
2022/05/31 06:47:57;;;;;;;;;;;;;;;25.41;26.16;100132.31;5136879;27;20011;-69
2022/05/31 06:50:22;;;;;;;;;;;;;;;25.44;26.32;100132.53;5137506;27;19920;-70
2022/05/31 06:58:15;;;;;;;;;;;;;;;25.40;26.26;100147.06;5137795;27;20383;-71
2022/05/31 07:00:41;;;;;;;;;;;;;;;25.41;26.18;100156.91;5137467;27;19919;-72
2022/05/31 07:03:06;;;;;;;;;;;;;;;25.43;26.51;100157.44;5119281;27;19915;-70
2022/05/31 07:05:32;;;;;;;;;;;;;;;25.44;26.29;100164.50;5137872;27;19916;-69
2022/05/31 07:07:57;;;;;;;;;;;;;;;25.44;26.61;100153.56;5128427;27;19926;-71
2022/05/31 07:10:22;;;;;;;;;;;;;;;25.46;26.46;100146.72;5128349;28;20257;-70
2022/05/31 07:12:48;;;;;;;;;;;;;;;25.48;26.70;100160.91;5130282;28;19926;-71
2022/05/31 07:15:13;;;;;;;;;;;;;;;25.50;26.77;100168.81;5125018;28;19944;-71
2022/05/31 07:17:39;;;;;;;;;;;;;;;25.54;26.70;100158.91;5124849;28;19923;-76
2022/05/31 07:20:05;;;;;;;;;;;;;;;25.54;26.77;100175.34;5119947;28;20281;-76
2022/05/31 07:22:30;;;;;;;;;;;;;;;25.54;27.06;100164.38;5120172;28;20029;-76
2022/05/31 07:24:56;;;;;;;;;;;;;;;25.53;26.90;100173.72;5119086;28;19920;-76
2022/05/31 07:27:21;;;;;;;;;;;;;;;25.50;27.36;100179.78;5123232;28;20018;-77
2022/05/31 07:29:46;;;;;;;;;;;;;;;25.52;27.35;100172.09;5118870;28;19974;-76
2022/05/31 07:32:11;;;;;;;;;;;;;;;25.53;27.82;100172.91;5117006;28;19927;-77
2022/05/31 07:34:36;;;;;;;;;;;;;;;25.55;27.95;100141.41;5116399;28;19959;-76
2022/05/31 07:37:02;;;;;;;;;;;;;;;25.55;27.89;100111.31;5117255;28;20342;-72
2022/05/31 07:39:27;;;;;;;;;;;;;;;25.54;28.07;100076.03;5117517;28;19924;-75
2022/05/31 07:41:54;;;;;;;;;;;;;;;25.53;28.16;100072.50;5115951;28;19923;-75
2022/05/31 07:44:20;;;;;;;;;;;;;;;25.55;28.20;100012.81;5116422;28;19915;-75
2022/05/31 07:46:45;;;;;;;;;;;;;;;25.57;28.31;99972.28;5097759;28;20278;-76
2022/05/31 07:49:10;;;;;;;;;;;;;;;25.61;28.64;99975.22;5115629;28;20034;-76
2022/05/31 07:51:35;;;;;;;;;;;;;;;25.61;28.73;100005.31;5116562;28;19966;-76
2022/05/31 07:54:01;;;;;;;;;;;;;;;25.63;28.68;100006.69;5117491;28;20010;-75
2022/05/31 07:56:26;;;;;;;;;;;;;;;25.59;28.60;100032.97;5115774;28;19968;-76
2022/05/31 07:58:52;;;;;;;;;;;;;;;25.62;28.69;100051.56;5115710;28;20344;-76
2022/05/31 08:01:18;;;;;;;;;;;;;;;25.64;28.68;100043.06;5115139;28;20277;-75
2022/05/31 08:03:43;;;;;;;;;;;;;;;25.61;28.72;100033.53;5115747;28;20314;-73
2022/05/31 08:06:09;;;;;;;;;;;;;;;25.67;29.04;100034.25;5116300;28;19981;-71
2022/05/31 08:08:35;;;;;;;;;;;;;;;25.68;28.83;100020.28;5135543;27;19916;-72
2022/05/31 08:11:07;;;;;;;;;;;;;;;25.73;28.10;100033.03;5140016;27;19944;-72
2022/05/31 08:13:33;;;;;;;;;;;;;;;25.74;28.13;100037.41;5135337;27;19916;-72
2022/05/31 08:15:58;;;;;;;;;;;;;;;25.77;28.47;100042.31;5135503;27;19922;-73
2022/05/31 08:18:23;;;;;;;;;;;;;;;25.79;28.38;100058.44;5117568;27;19916;-73
2022/05/31 08:20:49;;;;;;;;;;;;;;;25.80;28.31;100054.56;5135417;27;20015;-72
2022/05/31 08:23:14;;;;;;;;;;;;;;;25.81;28.40;100056.22;5135809;27;19915;-73
2022/05/31 08:25:39;;;;;;;;;;;;;;;25.80;27.98;100058.13;5116611;27;20362;-71
2022/05/31 08:28:05;;;;;;;;;;;;;;;25.82;28.16;100057.84;5135351;27;20358;-72
2022/05/31 08:30:30;;;;;;;;;;;;;;;25.75;28.72;100065.59;5136350;27;19942;-72
2022/05/31 08:32:55;;;;;;;;;;;;;;;25.77;29.04;100077.09;5137785;27;20277;-72
2022/05/31 08:35:21;;;;;;;;;;;;;;;25.74;28.96;100061.25;5134808;27;19923;-70
2022/05/31 08:37:46;;;;;;;;;;;;;;;25.71;28.77;100062.63;5135547;27;19940;-70
2022/05/31 08:40:11;;;;;;;;;;;;;;;25.72;28.93;100053.34;5137473;27;19923;-69
2022/05/31 08:42:48;;;;;;;;;;;;;;;25.74;29.01;100058.50;5135293;27;20336;-70
2022/05/31 08:45:18;;;;;;;;;;;;;;;25.76;29.01;100056.28;5116388;27;19916;-70
2022/05/31 08:47:44;;;;;;;;;;;;;;;25.73;28.98;100070.56;5116392;27;19915;-70
2022/05/31 08:52:56;;;;;;;;;;;;;;;25.74;29.22;100067.53;5134483;27;20353;-70
2022/05/31 08:58:09;;;;;;;;;;;;;;;25.74;29.35;100063.97;5134652;27;20287;-71
2022/05/31 09:00:36;;;;;;;;;;;;;;;25.75;29.51;100071.06;5116315;27;19964;-70
2022/05/31 09:03:22;;;;;;;;;;;;;;;25.76;29.65;100061.75;5115938;27;19916;-70
2022/05/31 09:06:13;;;;;;;;;;;;;;;25.77;29.58;100058.72;5133589;27;19964;-70
2022/05/31 09:08:40;;;;;;;;;;;;;;;25.77;29.77;100064.19;5114035;27;19915;-69
2022/05/31 09:11:08;;;;;;;;;;;;;;;25.79;30.13;100052.97;5095480;28;20008;-70
2022/05/31 09:13:36;;;;;;;;;;;;;;;25.81;29.97;100064.41;5113744;28;19939;-70
2022/05/31 09:16:07;;;;;;;;;;;;;;;25.79;30.09;100061.16;5113645;28;19916;-69
2022/05/31 09:18:51;;;;;;;;;;;;;;;25.80;30.41;100065.50;5095527;28;19916;-70
2022/05/31 09:21:27;;;;;;;;;;;;;;;25.83;30.13;100062.19;5113409;28;19967;-69
2022/05/31 09:23:53;;;;;;;;;;;;;;;25.82;30.24;100055.91;5095169;28;19926;-69
2022/05/31 09:26:40;;;;;;;;;;;;;;;25.86;30.21;100053.38;5113821;28;19994;-68
2022/05/31 09:29:16;;;;;;;;;;;;;;;25.85;30.53;100066.28;5050789;28;19917;-70
2022/05/31 09:31:50;;;;;;;;;;;;;;;25.87;30.34;100052.25;5051013;28;20431;-70
2022/05/31 09:34:27;;;;;;;;;;;;;;;25.82;30.80;100060.59;5050748;28;19916;-69
2022/05/31 09:37:25;;;;;;;;;;;;;;;25.83;30.74;100062.19;5051130;28;19933;-69
2022/05/31 09:39:50;;;;;;;;;;;;;;;25.86;30.71;100065.13;5011187;28;19917;-68
2022/05/31 09:42:17;;;;;;;;;;;;;;;25.72;31.06;100066.22;5010778;28;19927;-71
2022/05/31 09:44:43;;;;;;;;;;;;;;;25.77;31.03;100063.41;5011052;28;19924;-70
2022/05/31 09:47:14;;;;;;;;;;;;;;;25.79;31.03;100069.38;5011016;28;19918;-69
2022/05/31 09:49:43;;;;;;;;;;;;;;;25.75;31.10;100069.16;5010685;28;19960;-68
2022/05/31 09:52:21;;;;;;;;;;;;;;;25.76;31.00;100059.81;5010670;28;19924;-69
2022/05/31 09:57:53;;;;;;;;;;;;;;;25.79;30.88;100069.38;5010950;28;19967;-68
2022/05/31 10:00:20;;;;;;;;;;;;;;;25.80;30.79;100068.25;5011251;28;20400;-70
2022/05/31 10:02:45;;;;;;;;;;;;;;;25.78;30.65;100075.94;5011497;28;19917;-69
2022/05/31 10:05:20;;;;;;;;;;;;;;;25.81;31.09;100067.16;5012841;28;19928;-68
2022/05/31 10:07:46;;;;;;;;;;;;;;;25.87;30.67;100074.16;5039031;28;19924;-68
2022/05/31 10:10:15;;;;;;;;;;;;;;;25.86;30.86;100075.28;5050675;28;19916;-68
2022/05/31 10:12:54;;;;;;;;;;;;;;;25.88;30.87;100081.28;5051925;28;19929;-69
2022/05/31 10:15:37;;;;;;;;;;;;;;;25.93;30.80;100077.66;5079053;28;19922;-70
2022/05/31 10:18:07;;;;;;;;;;;;;;;25.88;31.02;100078.53;5113914;28;19915;-68
2022/05/31 10:20:32;;;;;;;;;;;;;;;25.90;31.41;100067.28;5113667;28;19915;-69
2022/05/31 10:23:00;;;;;;;;;;;;;;;25.97;31.29;100068.56;5113334;28;19965;-69
2022/05/31 10:25:26;;;;;;;;;;;;;;;25.91;31.70;100072.47;5113434;28;19973;-69
2022/05/31 10:27:55;;;;;;;;;;;;;;;25.97;31.37;100076.78;5113078;28;20293;-70
2022/05/31 10:30:22;;;;;;;;;;;;;;;25.99;31.07;100084.69;5094871;28;19965;-70
2022/05/31 10:33:14;;;;;;;;;;;;;;;25.99;31.02;100074.56;5095202;28;19920;-70
2022/05/31 10:35:41;;;;;;;;;;;;;;;25.93;31.47;100083.13;5031491;28;20376;-69
2022/05/31 10:38:15;;;;;;;;;;;;;;;25.94;31.61;100080.13;5034189;28;19919;-70
2022/05/31 10:40:41;;;;;;;;;;;;;;;25.93;31.49;100078.47;5034356;28;19925;-70
2022/05/31 10:43:19;;;;;;;;;;;;;;;25.92;31.92;100078.75;5034265;28;19951;-69
2022/05/31 10:45:44;;;;;;;;;;;;;;;25.89;31.65;100080.19;5033715;28;19940;-68
2022/05/31 10:48:09;;;;;;;;;;;;;;;25.95;31.81;100081.72;5033927;28;20364;-68
2022/05/31 10:50:44;;;;;;;;;;;;;;;25.96;31.92;100077.91;5033757;28;19995;-69
2022/05/31 10:53:14;;;;;;;;;;;;;;;26.00;31.66;100084.38;5034201;28;19917;-69
2022/05/31 10:55:40;;;;;;;;;;;;;;;25.97;31.62;100079.50;5033740;28;19941;-69
2022/05/31 10:58:06;;;;;;;;;;;;;;;25.96;31.79;100088.03;5034455;28;19921;-70
2022/05/31 11:00:32;;;;;;;;;;;;;;;25.99;31.61;100085.53;5033907;28;20012;-69
2022/05/31 11:03:16;;;;;;;;;;;;;;;25.94;31.69;100091.06;5034206;28;19917;-69
2022/05/31 11:05:50;;;;;;;;;;;;;;;25.96;31.69;100090.78;5034135;28;19948;-69
2022/05/31 11:11:28;;;;;;;;;;;;;;;25.96;31.72;100090.78;5053158;28;19928;-68
2022/05/31 11:14:00;;;;;;;;;;;;;;;25.93;31.51;100094.88;5116165;28;19916;-69
2022/05/31 11:16:25;;;;;;;;;;;;;;;25.94;31.52;100096.56;5097890;28;20061;-69
2022/05/31 11:18:50;;;;;;;;;;;;;;;25.97;31.54;100090.47;5116630;28;19947;-69
2022/05/31 11:21:25;;;;;;;;;;;;;;;25.98;31.35;100094.03;5115674;28;20004;-71
2022/05/31 11:24:02;;;;;;;;;;;;;;;26.03;31.35;100096.69;5115900;28;19924;-69
2022/05/31 11:26:34;;;;;;;;;;;;;;;25.97;31.69;100090.47;5115763;28;20341;-69
2022/05/31 11:28:59;;;;;;;;;;;;;;;25.97;31.76;100084.97;5095898;28;20319;-69
2022/05/31 11:31:36;;;;;;;;;;;;;;;25.98;31.53;100092.09;5108356;28;19932;-69
2022/05/31 11:34:20;;;;;;;;;;;;;;;25.98;31.88;100091.28;5097379;28;19930;-69
2022/05/31 11:36:57;;;;;;;;;;;;;;;26.00;31.74;100087.13;5115741;28;19923;-68
2022/05/31 11:39:25;;;;;;;;;;;;;;;26.01;31.47;100085.22;5115666;28;19916;-69
2022/05/31 11:42:02;;;;;;;;;;;;;;;26.00;31.80;100089.88;5115388;28;19916;-69
2022/05/31 11:44:33;;;;;;;;;;;;;;;26.00;31.55;100098.09;5114933;28;20465;-68
2022/05/31 11:46:59;;;;;;;;;;;;;;;26.00;31.50;100095.34;5115131;28;19966;-70
2022/05/31 11:49:27;;;;;;;;;;;;;;;26.01;31.50;100099.72;5115069;28;19916;-73
2022/05/31 11:51:52;;;;;;;;;;;;;;;26.02;31.60;100103.25;5115276;28;19999;-74
2022/05/31 11:54:36;;;;;;;;;;;;;;;25.99;31.36;100103.84;5115530;28;19955;-74
2022/05/31 11:57:04;;;;;;;;;;;;;;;25.97;31.36;100112.34;5115408;28;20010;-73
2022/05/31 11:59:32;;;;;;;;;;;;;;;25.99;31.59;100110.16;5115372;28;19923;-75
2022/05/31 12:02:03;;;;;;;;;;;;;;;25.99;31.46;100110.16;5096843;28;20358;-75
2022/05/31 12:05:04;;;;;;;;;;;;;;;26.00;31.73;100103.56;5096922;28;19966;-74
2022/05/31 12:07:33;;;;;;;;;;;;;;;25.97;31.73;100111.56;5056605;28;19961;-74
2022/05/31 12:10:07;;;;;;;;;;;;;;;25.98;31.64;100113.19;5072583;28;20098;-74
2022/05/31 12:12:32;;;;;;;;;;;;;;;25.96;31.67;100110.75;5056297;28;19951;-73
2022/05/31 12:15:02;;;;;;;;;;;;;;;25.94;31.46;100115.72;5055370;28;19920;-73
2022/05/31 12:17:51;;;;;;;;;;;;;;;25.99;31.44;100126.59;5055252;28;19917;-73
2022/05/31 12:20:21;;;;;;;;;;;;;;;25.98;31.58;100119.47;5032249;28;19917;-73
2022/05/31 12:23:07;;;;;;;;;;;;;;;26.00;31.36;100128.19;5015900;28;19917;-73
2022/05/31 12:25:42;;;;;;;;;;;;;;;25.96;31.39;100121.69;4934655;29;20456;-72
2022/05/31 12:28:10;;;;;;;;;;;;;;;25.94;31.30;100121.19;4935072;29;19919;-73
2022/05/31 12:30:45;;;;;;;;;;;;;;;25.94;31.09;100123.94;4934438;29;19934;-73
2022/05/31 12:33:36;;;;;;;;;;;;;;;25.97;30.88;100123.31;4934690;29;19927;-72
2022/05/31 12:36:01;;;;;;;;;;;;;;;25.95;30.91;100120.06;4935157;29;20014;-73
2022/05/31 12:38:27;;;;;;;;;;;;;;;25.93;30.90;100127.72;4934976;29;20014;-73
2022/05/31 12:40:53;;;;;;;;;;;;;;;25.91;30.86;100129.97;4934860;29;20089;-70
2022/05/31 12:43:36;;;;;;;;;;;;;;;25.92;30.89;100128.03;4934950;29;19930;-71
2022/05/31 12:46:20;;;;;;;;;;;;;;;25.93;30.73;100127.72;4934847;29;19966;-70
2022/05/31 12:48:51;;;;;;;;;;;;;;;25.93;30.66;100133.22;4934679;29;19919;-70
2022/05/31 12:51:19;;;;;;;;;;;;;;;25.91;30.55;100135.44;4918847;29;20359;-70
2022/05/31 12:53:50;;;;;;;;;;;;;;;25.91;30.53;100140.91;4934750;29;19919;-70
2022/05/31 12:56:30;;;;;;;;;;;;;;;25.93;30.37;100144.16;4939383;28;20005;-70
2022/05/31 12:58:55;;;;;;;;;;;;;;;25.95;30.43;100144.69;4991792;28;19926;-69
2022/05/31 13:01:23;;;;;;;;;;;;;;;25.92;30.67;100138.97;4992688;28;19972;-70
2022/05/31 13:03:48;;;;;;;;;;;;;;;25.89;30.39;100143.13;5113253;28;19951;-70
2022/05/31 13:06:28;;;;;;;;;;;;;;;25.89;30.52;100142.31;5114488;28;20289;-70